createdAt,value
2017-01-24T00:00:31.794Z,300
2017-01-24T00:01:31.932Z,300
2017-01-24T00:02:32.119Z,299
2017-01-24T00:03:32.192Z,300
2017-01-24T00:04:32.343Z,298
2017-01-24T00:05:32.455Z,298
2017-01-24T00:06:32.699Z,298
2017-01-24T00:07:32.763Z,297
2017-01-24T00:08:32.906Z,300
2017-01-24T00:09:33.090Z,300
2017-01-24T00:10:33.114Z,302
2017-01-24T00:11:33.245Z,301
2017-01-24T00:12:33.381Z,302
2017-01-24T00:13:33.468Z,301
2017-01-24T00:14:33.660Z,303
2017-01-24T00:15:33.723Z,302
2017-01-24T00:16:33.919Z,302
2017-01-24T00:17:34.009Z,303
2017-01-24T00:18:34.173Z,303
2017-01-24T00:19:37.208Z,303
2017-01-24T00:20:37.389Z,301
2017-01-24T00:21:37.498Z,302
2017-01-24T00:22:37.678Z,304
2017-01-24T00:23:37.771Z,306
2017-01-24T00:24:37.905Z,306
2017-01-24T00:25:38.002Z,307
2017-01-24T00:26:38.120Z,305
2017-01-24T00:27:38.308Z,306
2017-01-24T00:28:39.167Z,306
2017-01-24T00:29:38.681Z,308
2017-01-24T00:30:38.790Z,312
2017-01-24T00:31:39.015Z,315
2017-01-24T00:32:39.203Z,313
2017-01-24T00:33:39.426Z,313
2017-01-24T00:34:39.566Z,341
2017-01-24T00:35:39.765Z,379
2017-01-24T00:36:39.994Z,375
2017-01-24T00:37:40.140Z,378
2017-01-24T00:38:40.257Z,378
2017-01-24T00:39:40.389Z,375
2017-01-24T00:40:40.544Z,369
2017-01-24T00:41:40.696Z,367
2017-01-24T00:42:40.836Z,360
2017-01-24T00:43:40.958Z,358
2017-01-24T00:44:41.083Z,358
2017-01-24T00:45:41.173Z,353
2017-01-24T00:46:41.277Z,350
2017-01-24T00:47:41.493Z,350
2017-01-24T00:48:41.774Z,349
2017-01-24T00:49:41.924Z,351
2017-01-24T00:50:42.052Z,349
2017-01-24T00:51:42.331Z,345
2017-01-24T00:52:42.442Z,344
2017-01-24T00:53:42.645Z,343
2017-01-24T00:54:42.794Z,344
2017-01-24T00:55:42.934Z,346
2017-01-24T00:56:43.044Z,347
2017-01-24T00:57:43.171Z,348
2017-01-24T00:58:43.326Z,344
2017-01-24T00:59:43.419Z,343
2017-01-24T01:00:43.590Z,340
2017-01-24T01:01:43.735Z,338
2017-01-24T01:02:43.907Z,335
2017-01-24T01:03:44.046Z,331
2017-01-24T01:04:44.297Z,326
2017-01-24T01:05:44.446Z,325
2017-01-24T01:06:44.718Z,324
2017-01-24T01:07:44.862Z,325
2017-01-24T01:08:45.078Z,327
2017-01-24T01:09:45.142Z,324
2017-01-24T01:10:45.317Z,323
2017-01-24T01:11:45.589Z,320
2017-01-24T01:12:45.697Z,319
2017-01-24T01:13:45.789Z,315
2017-01-24T01:14:45.895Z,316
2017-01-24T01:15:45.991Z,318
2017-01-24T01:16:46.075Z,316
2017-01-24T01:17:46.302Z,318
2017-01-24T01:18:46.494Z,316
2017-01-24T01:19:46.648Z,313
2017-01-24T01:20:46.874Z,311
2017-01-24T01:21:46.998Z,311
2017-01-24T01:22:47.273Z,311
2017-01-24T01:23:47.492Z,312
2017-01-24T01:24:47.614Z,313
2017-01-24T01:25:47.781Z,319
2017-01-24T01:26:47.911Z,318
2017-01-24T01:27:47.985Z,314
2017-01-24T01:28:48.146Z,314
2017-01-24T01:29:48.282Z,314
2017-01-24T01:30:48.459Z,312
2017-01-24T01:31:48.623Z,311
2017-01-24T01:32:48.780Z,310
2017-01-24T01:33:48.988Z,311
2017-01-24T01:34:49.156Z,313
2017-01-24T01:35:49.322Z,311
2017-01-24T01:36:49.425Z,310
2017-01-24T01:37:49.651Z,308
2017-01-24T01:38:50.238Z,308
2017-01-24T01:39:50.397Z,308
2017-01-24T01:40:50.575Z,309
2017-01-24T01:41:50.692Z,307
2017-01-24T01:42:50.808Z,308
2017-01-24T01:43:50.941Z,308
2017-01-24T01:44:51.642Z,309
2017-01-24T01:45:51.152Z,309
2017-01-24T01:46:51.314Z,307
2017-01-24T01:47:51.489Z,306
2017-01-24T01:48:51.590Z,305
2017-01-24T01:49:51.703Z,304
2017-01-24T01:50:51.843Z,304
2017-01-24T01:51:52.152Z,303
2017-01-24T01:52:52.346Z,304
2017-01-24T01:53:52.468Z,303
2017-01-24T01:54:52.601Z,302
2017-01-24T01:55:52.753Z,303
2017-01-24T01:56:52.982Z,303
2017-01-24T01:57:53.036Z,304
2017-01-24T01:58:53.243Z,303
2017-01-24T01:59:53.448Z,302
2017-01-24T02:00:53.574Z,303
2017-01-24T02:01:53.650Z,302
2017-01-24T02:02:53.878Z,301
2017-01-24T02:03:53.923Z,301
2017-01-24T02:04:54.280Z,302
2017-01-24T02:05:54.400Z,302
2017-01-24T02:06:54.559Z,300
2017-01-24T02:07:54.731Z,302
2017-01-24T02:08:54.897Z,301
2017-01-24T02:09:55.005Z,300
2017-01-24T02:10:55.060Z,300
2017-01-24T02:11:55.216Z,302
2017-01-24T02:12:55.343Z,301
2017-01-24T02:13:55.446Z,301
2017-01-24T02:14:55.664Z,300
2017-01-24T02:15:55.753Z,299
2017-01-24T02:16:55.955Z,299
2017-01-24T02:17:56.203Z,301
2017-01-24T02:18:56.406Z,299
2017-01-24T02:19:56.548Z,298
2017-01-24T02:20:56.865Z,298
2017-01-24T02:21:57.065Z,297
2017-01-24T02:22:57.167Z,299
2017-01-24T02:23:57.380Z,298
2017-01-24T02:24:57.628Z,298
2017-01-24T02:25:57.760Z,297
2017-01-24T02:26:57.867Z,299
2017-01-24T02:27:58.032Z,298
2017-01-24T02:28:58.112Z,298
2017-01-24T02:29:58.222Z,296
2017-01-24T02:30:58.328Z,296
2017-01-24T02:31:58.422Z,297
2017-01-24T02:32:58.524Z,297
2017-01-24T02:33:58.626Z,297
2017-01-24T02:34:58.728Z,298
2017-01-24T02:35:58.864Z,297
2017-01-24T02:36:59.019Z,298
2017-01-24T02:37:59.294Z,297
2017-01-24T02:39:00.267Z,296
2017-01-24T02:40:01.159Z,298
2017-01-24T02:41:00.584Z,298
2017-01-24T02:42:00.712Z,297
2017-01-24T02:43:00.842Z,296
2017-01-24T02:44:01.007Z,296
2017-01-24T02:45:01.150Z,297
2017-01-24T02:46:01.286Z,296
2017-01-24T02:47:01.498Z,296
2017-01-24T02:48:01.583Z,297
2017-01-24T02:49:01.741Z,297
2017-01-24T02:50:01.996Z,297
2017-01-24T02:51:02.163Z,298
2017-01-24T02:52:02.291Z,299
2017-01-24T02:53:02.498Z,300
2017-01-24T02:54:02.615Z,302
2017-01-24T02:55:02.799Z,302
2017-01-24T02:56:03.005Z,300
2017-01-24T02:57:03.066Z,299
2017-01-24T02:58:03.158Z,300
2017-01-24T02:59:04.159Z,301
2017-01-24T03:00:04.322Z,300
2017-01-24T03:01:04.558Z,301
2017-01-24T03:02:04.684Z,303
2017-01-24T03:03:04.781Z,304
2017-01-24T03:04:04.942Z,306
2017-01-24T03:05:05.035Z,308
2017-01-24T03:06:05.131Z,310
2017-01-24T03:07:05.233Z,313
2017-01-24T03:08:05.427Z,311
2017-01-24T03:09:05.512Z,309
2017-01-24T03:10:05.724Z,306
2017-01-24T03:11:05.869Z,306
2017-01-24T03:12:05.977Z,308
2017-01-24T03:13:06.181Z,309
2017-01-24T03:14:06.260Z,311
2017-01-24T03:15:06.382Z,313
2017-01-24T03:16:06.530Z,306
2017-01-24T03:17:06.631Z,308
2017-01-24T03:18:06.781Z,305
2017-01-24T03:19:06.864Z,307
2017-01-24T03:20:06.970Z,308
2017-01-24T03:21:07.116Z,303
2017-01-24T03:22:07.272Z,303
2017-01-24T03:23:07.346Z,302
2017-01-24T03:24:07.553Z,300
2017-01-24T03:25:07.646Z,300
2017-01-24T03:26:07.844Z,299
2017-01-24T03:27:07.972Z,298
2017-01-24T03:28:08.121Z,298
2017-01-24T03:29:08.302Z,300
2017-01-24T03:30:08.459Z,301
2017-01-24T03:31:08.577Z,301
2017-01-24T03:32:08.806Z,302
2017-01-24T03:33:08.943Z,301
2017-01-24T03:34:09.053Z,303
2017-01-24T03:35:09.241Z,302
2017-01-24T03:36:09.396Z,301
2017-01-24T03:37:09.628Z,302
2017-01-24T03:38:09.754Z,300
2017-01-24T03:39:09.981Z,302
2017-01-24T03:40:10.311Z,301
2017-01-24T03:41:10.401Z,301
2017-01-24T03:42:10.558Z,301
2017-01-24T03:43:10.717Z,298
2017-01-24T03:44:10.826Z,297
2017-01-24T03:45:10.960Z,299
2017-01-24T03:46:11.059Z,298
2017-01-24T03:47:11.208Z,297
2017-01-24T03:48:11.339Z,298
2017-01-24T03:49:11.464Z,299
2017-01-24T03:50:11.729Z,299
2017-01-24T03:51:11.837Z,301
2017-01-24T03:52:11.988Z,301
2017-01-24T03:53:12.127Z,304
2017-01-24T03:54:12.281Z,304
2017-01-24T03:55:12.450Z,304
2017-01-24T03:56:12.644Z,305
2017-01-24T03:57:12.828Z,305
2017-01-24T03:58:12.961Z,306
2017-01-24T03:59:13.187Z,306
2017-01-24T04:00:13.351Z,306
2017-01-24T04:01:13.523Z,305
2017-01-24T04:02:13.677Z,305
2017-01-24T04:03:13.783Z,304
2017-01-24T04:04:13.956Z,303
2017-01-24T04:05:14.191Z,306
2017-01-24T04:06:14.309Z,305
2017-01-24T04:07:14.499Z,306
2017-01-24T04:08:14.627Z,308
2017-01-24T04:09:14.851Z,311
2017-01-24T04:10:14.985Z,312
2017-01-24T04:11:15.160Z,311
2017-01-24T04:12:15.305Z,314
2017-01-24T04:13:15.406Z,312
2017-01-24T04:14:15.564Z,311
2017-01-24T04:15:15.692Z,309
2017-01-24T04:16:15.818Z,309
2017-01-24T04:17:15.996Z,310
2017-01-24T04:18:16.123Z,310
2017-01-24T04:19:16.265Z,308
2017-01-24T04:20:16.342Z,306
2017-01-24T04:21:16.546Z,306
2017-01-24T04:22:16.683Z,308
2017-01-24T04:23:17.705Z,309
2017-01-24T04:24:17.891Z,308
2017-01-24T04:25:17.920Z,307
2017-01-24T04:26:17.991Z,308
2017-01-24T04:27:18.152Z,309
2017-01-24T04:28:18.258Z,309
2017-01-24T04:29:18.366Z,308
2017-01-24T04:30:18.537Z,309
2017-01-24T04:31:18.667Z,309
2017-01-24T04:32:18.795Z,307
2017-01-24T04:33:19.074Z,308
2017-01-24T04:34:19.231Z,307
2017-01-24T04:35:19.416Z,307
2017-01-24T04:36:19.590Z,308
2017-01-24T04:37:19.749Z,307
2017-01-24T04:38:19.901Z,307
2017-01-24T04:39:20.071Z,307
2017-01-24T04:40:20.267Z,308
2017-01-24T04:41:20.396Z,309
2017-01-24T04:42:20.543Z,310
2017-01-24T04:43:20.715Z,310
2017-01-24T04:44:20.825Z,309
2017-01-24T04:45:20.944Z,310
2017-01-24T04:46:21.041Z,310
2017-01-24T04:47:21.168Z,310
2017-01-24T04:48:21.293Z,309
2017-01-24T04:49:21.466Z,310
2017-01-24T04:50:21.627Z,309
2017-01-24T04:51:21.745Z,309
2017-01-24T04:52:22.023Z,310
2017-01-24T04:53:22.165Z,310
2017-01-24T04:54:22.326Z,311
2017-01-24T04:55:22.450Z,311
2017-01-24T04:56:22.596Z,310
2017-01-24T04:57:22.768Z,312
2017-01-24T04:58:22.938Z,311
2017-01-24T04:59:23.070Z,310
2017-01-24T05:00:23.213Z,310
2017-01-24T05:01:23.398Z,310
2017-01-24T05:02:23.538Z,309
2017-01-24T05:03:23.732Z,309
2017-01-24T05:04:23.860Z,311
2017-01-24T05:05:24.095Z,311
2017-01-24T05:06:24.196Z,310
2017-01-24T05:07:24.328Z,310
2017-01-24T05:08:24.559Z,308
2017-01-24T05:09:24.799Z,309
2017-01-24T05:10:24.976Z,309
2017-01-24T05:11:25.114Z,309
2017-01-24T05:12:25.282Z,309
2017-01-24T05:13:25.342Z,310
2017-01-24T05:14:25.532Z,309
2017-01-24T05:15:25.690Z,309
2017-01-24T05:16:25.913Z,308
2017-01-24T05:17:26.116Z,307
2017-01-24T05:18:26.282Z,307
2017-01-24T05:19:26.429Z,306
2017-01-24T05:20:26.677Z,306
2017-01-24T05:21:26.860Z,307
2017-01-24T05:22:26.959Z,310
2017-01-24T05:23:27.152Z,310
2017-01-24T05:24:27.240Z,307
2017-01-24T05:25:27.394Z,306
2017-01-24T05:26:27.575Z,305
2017-01-24T05:27:27.689Z,305
2017-01-24T05:28:27.757Z,305
2017-01-24T05:29:27.881Z,305
2017-01-24T05:30:28.035Z,305
2017-01-24T05:31:28.181Z,304
2017-01-24T05:32:28.361Z,303
2017-01-24T05:33:28.538Z,303
2017-01-24T05:34:28.714Z,302
2017-01-24T05:35:28.931Z,302
2017-01-24T05:36:29.058Z,304
2017-01-24T05:37:29.231Z,305
2017-01-24T05:38:29.421Z,304
2017-01-24T05:39:29.545Z,309
2017-01-24T05:40:29.806Z,308
2017-01-24T05:41:30.028Z,306
2017-01-24T05:42:30.245Z,305
2017-01-24T05:43:30.280Z,305
2017-01-24T05:44:30.475Z,306
2017-01-24T05:45:30.663Z,303
2017-01-24T05:46:30.854Z,305
2017-01-24T05:47:31.693Z,304
2017-01-24T05:48:31.074Z,303
2017-01-24T05:49:31.341Z,302
2017-01-24T05:50:31.493Z,302
2017-01-24T05:51:31.665Z,300
2017-01-24T05:52:31.899Z,301
2017-01-24T05:53:32.010Z,301
2017-01-24T05:54:32.217Z,301
2017-01-24T05:55:32.448Z,300
2017-01-24T05:56:32.594Z,300
2017-01-24T05:57:32.798Z,300
2017-01-24T05:58:32.842Z,301
2017-01-24T05:59:33.036Z,301
2017-01-24T06:00:33.096Z,302
2017-01-24T06:01:33.231Z,302
2017-01-24T06:02:33.348Z,301
2017-01-24T06:03:33.513Z,302
2017-01-24T06:04:33.744Z,301
2017-01-24T06:05:33.989Z,300
2017-01-24T06:06:34.065Z,300
2017-01-24T06:07:34.184Z,300
2017-01-24T06:08:34.313Z,302
2017-01-24T06:09:34.521Z,301
2017-01-24T06:10:34.751Z,301
2017-01-24T06:11:34.805Z,301
2017-01-24T06:12:34.989Z,301
2017-01-24T06:13:35.181Z,301
2017-01-24T06:14:35.275Z,301
2017-01-24T06:15:35.403Z,301
2017-01-24T06:16:35.530Z,301
2017-01-24T06:17:35.740Z,300
2017-01-24T06:18:35.991Z,301
2017-01-24T06:19:36.133Z,301
2017-01-24T06:20:36.289Z,300
2017-01-24T06:21:36.497Z,301
2017-01-24T06:22:36.649Z,299
2017-01-24T06:23:36.773Z,299
2017-01-24T06:24:36.977Z,299
2017-01-24T06:25:37.113Z,297
2017-01-24T06:26:37.285Z,297
2017-01-24T06:27:37.469Z,297
2017-01-24T06:28:37.635Z,297
2017-01-24T06:29:37.841Z,296
2017-01-24T06:30:37.965Z,296
2017-01-24T06:31:38.012Z,297
2017-01-24T06:32:38.186Z,296
2017-01-24T06:33:38.250Z,295
2017-01-24T06:34:38.442Z,300
2017-01-24T06:35:38.645Z,298
2017-01-24T06:36:38.796Z,298
2017-01-24T06:37:38.959Z,298
2017-01-24T06:38:39.205Z,298
2017-01-24T06:39:39.331Z,300
2017-01-24T06:40:39.450Z,300
2017-01-24T06:41:39.746Z,299
2017-01-24T06:42:39.956Z,299
2017-01-24T06:43:40.206Z,299
2017-01-24T06:44:40.386Z,298
2017-01-24T06:45:40.502Z,299
2017-01-24T06:48:07.667Z,296
2017-01-24T06:49:07.810Z,296
2017-01-24T06:50:07.971Z,296
2017-01-24T06:51:08.121Z,295
2017-01-24T06:52:08.314Z,295
2017-01-24T06:53:08.501Z,296
2017-01-24T06:54:08.571Z,295
2017-01-24T06:55:08.825Z,294
2017-01-24T06:56:09.028Z,294
2017-01-24T06:57:09.216Z,293
2017-01-24T06:58:09.329Z,292
2017-01-24T06:59:09.419Z,292
2017-01-24T07:00:09.568Z,292
2017-01-24T07:01:09.750Z,292
2017-01-24T07:02:09.904Z,293
2017-01-24T07:03:10.028Z,293
2017-01-24T07:04:10.111Z,293
2017-01-24T07:05:10.241Z,292
2017-01-24T07:06:10.326Z,291
2017-01-24T07:07:10.528Z,291
2017-01-24T07:08:10.755Z,291
2017-01-24T07:09:10.880Z,291
2017-01-24T07:10:11.060Z,290
2017-01-24T07:11:11.156Z,289
2017-01-24T07:12:11.297Z,289
2017-01-24T07:13:11.508Z,289
2017-01-24T07:14:11.677Z,289
2017-01-24T07:15:11.829Z,289
2017-01-24T07:16:11.982Z,288
2017-01-24T07:17:12.161Z,288
2017-01-24T07:18:12.337Z,287
2017-01-24T07:19:12.523Z,288
2017-01-24T07:20:12.666Z,287
2017-01-24T07:21:12.865Z,287
2017-01-24T07:22:13.025Z,287
2017-01-24T07:23:13.141Z,288
2017-01-24T07:24:13.325Z,290
2017-01-24T07:25:13.463Z,289
2017-01-24T07:26:13.740Z,288
2017-01-24T07:27:13.979Z,287
2017-01-24T07:28:14.228Z,288
2017-01-24T07:29:14.437Z,288
2017-01-24T07:30:14.572Z,288
2017-01-24T07:31:14.817Z,288
2017-01-24T07:32:15.001Z,288
2017-01-24T07:33:15.153Z,288
2017-01-24T07:34:15.252Z,288
2017-01-24T07:35:15.403Z,288
2017-01-24T07:36:15.606Z,288
2017-01-24T07:37:15.777Z,289
2017-01-24T07:38:15.956Z,289
2017-01-24T07:39:16.084Z,289
2017-01-24T07:40:16.379Z,288
2017-01-24T07:41:16.513Z,288
2017-01-24T07:42:16.779Z,289
2017-01-24T07:43:17.028Z,290
2017-01-24T07:44:17.279Z,290
2017-01-24T07:45:17.408Z,290
2017-01-24T07:46:17.534Z,289
2017-01-24T07:47:17.663Z,289
2017-01-24T07:48:17.792Z,289
2017-01-24T07:49:17.888Z,289
2017-01-24T07:50:18.046Z,290
2017-01-24T07:51:18.278Z,289
2017-01-24T07:52:18.356Z,290
2017-01-24T07:53:18.506Z,290
2017-01-24T07:54:18.657Z,290
2017-01-24T07:55:18.954Z,290
2017-01-24T07:56:19.168Z,290
2017-01-24T07:57:20.166Z,290
2017-01-24T07:58:19.416Z,289
2017-01-24T07:59:19.615Z,289
2017-01-24T08:00:19.833Z,291
2017-01-24T08:01:19.989Z,290
2017-01-24T08:02:20.185Z,291
2017-01-24T08:03:20.340Z,292
2017-01-24T08:04:20.533Z,292
2017-01-24T08:05:20.706Z,292
2017-01-24T08:06:20.885Z,293
2017-01-24T08:07:21.022Z,293
2017-01-24T08:08:21.149Z,292
2017-01-24T08:09:21.333Z,291
2017-01-24T08:10:21.469Z,293
2017-01-24T08:11:21.659Z,293
2017-01-24T08:12:21.782Z,294
2017-01-24T08:13:21.956Z,293
2017-01-24T08:14:22.117Z,294
2017-01-24T08:15:22.243Z,294
2017-01-24T08:16:22.447Z,295
2017-01-24T08:17:22.700Z,296
2017-01-24T08:18:22.804Z,296
2017-01-24T08:19:22.913Z,297
2017-01-24T08:20:23.037Z,320
2017-01-24T08:21:23.160Z,352
2017-01-24T08:22:23.356Z,368
2017-01-24T08:23:23.553Z,373
2017-01-24T08:24:23.657Z,396
2017-01-24T08:25:23.843Z,401
2017-01-24T08:26:23.938Z,415
2017-01-24T08:27:24.184Z,428
2017-01-24T08:28:24.200Z,433
2017-01-24T08:29:24.444Z,443
2017-01-24T08:30:24.549Z,455
2017-01-24T08:31:24.687Z,462
2017-01-24T08:32:24.983Z,483
2017-01-24T08:33:25.179Z,466
2017-01-24T08:34:25.231Z,467
2017-01-24T08:35:25.410Z,464
2017-01-24T08:36:25.604Z,470
2017-01-24T08:37:25.815Z,471
2017-01-24T08:38:25.900Z,497
2017-01-24T08:39:26.165Z,516
2017-01-24T08:40:26.345Z,504
2017-01-24T08:41:26.501Z,523
2017-01-24T08:42:26.653Z,522
2017-01-24T08:43:26.795Z,537
2017-01-24T08:44:26.967Z,538
2017-01-24T08:45:27.170Z,547
2017-01-24T08:46:27.397Z,532
2017-01-24T08:47:27.517Z,563
2017-01-24T08:48:27.626Z,618
2017-01-24T08:49:27.737Z,645
2017-01-24T08:50:27.888Z,670
2017-01-24T08:51:28.034Z,649
2017-01-24T08:52:28.280Z,694
2017-01-24T08:53:28.324Z,719
2017-01-24T08:54:28.454Z,729
2017-01-24T08:55:28.582Z,736
2017-01-24T08:56:28.773Z,739
2017-01-24T08:57:28.918Z,739
2017-01-24T08:58:29.183Z,744
2017-01-24T08:59:29.287Z,747
2017-01-24T09:00:29.503Z,752
2017-01-24T09:01:29.659Z,759
2017-01-24T09:02:29.813Z,764
2017-01-24T09:03:30.021Z,763
2017-01-24T09:04:30.202Z,793
2017-01-24T09:05:30.354Z,817
2017-01-24T09:06:30.518Z,820
2017-01-24T09:07:30.834Z,820
2017-01-24T09:08:30.871Z,824
2017-01-24T09:09:30.982Z,822
2017-01-24T09:10:31.207Z,826
2017-01-24T09:11:31.261Z,836
2017-01-24T09:12:31.440Z,842
2017-01-24T09:13:31.635Z,862
2017-01-24T09:14:31.826Z,862
2017-01-24T09:15:32.005Z,849
2017-01-24T09:16:32.161Z,853
2017-01-24T09:17:32.267Z,850
2017-01-24T09:18:32.499Z,831
2017-01-24T09:19:32.590Z,837
2017-01-24T09:20:32.685Z,839
2017-01-24T09:21:32.776Z,840
2017-01-24T09:22:32.983Z,815
2017-01-24T09:23:33.088Z,838
2017-01-24T09:24:33.298Z,775
2017-01-24T09:25:33.412Z,790
2017-01-24T09:26:33.563Z,791
2017-01-24T09:27:33.710Z,792
2017-01-24T09:28:33.999Z,790
2017-01-24T09:29:34.167Z,788
2017-01-24T09:30:34.457Z,785
2017-01-24T09:31:34.682Z,783
2017-01-24T09:32:34.759Z,775
2017-01-24T09:33:34.999Z,769
2017-01-24T09:34:35.117Z,618
2017-01-24T09:35:35.287Z,590
2017-01-24T09:36:35.433Z,588
2017-01-24T09:37:35.666Z,622
2017-01-24T09:38:35.758Z,578
2017-01-24T09:39:35.865Z,571
2017-01-24T09:40:36.036Z,570
2017-01-24T09:41:36.219Z,566
2017-01-24T09:42:36.401Z,601
2017-01-24T09:43:36.648Z,564
2017-01-24T09:44:36.907Z,556
2017-01-24T09:45:36.973Z,553
2017-01-24T09:46:37.087Z,551
2017-01-24T09:47:37.236Z,550
2017-01-24T09:48:37.348Z,547
2017-01-24T09:49:37.501Z,543
2017-01-24T09:50:37.638Z,549
2017-01-24T09:51:37.795Z,555
2017-01-24T09:52:37.830Z,553
2017-01-24T09:53:38.027Z,558
2017-01-24T09:54:38.196Z,557
2017-01-24T09:55:38.308Z,559
2017-01-24T09:56:38.503Z,574
2017-01-24T09:57:38.651Z,564
2017-01-24T09:58:38.766Z,558
2017-01-24T09:59:38.902Z,553
2017-01-24T10:00:39.090Z,531
2017-01-24T10:01:39.255Z,536
2017-01-24T10:02:39.416Z,527
2017-01-24T10:03:39.639Z,534
2017-01-24T10:04:39.699Z,534
2017-01-24T10:05:39.923Z,522
2017-01-24T10:06:40.026Z,521
2017-01-24T10:07:40.146Z,528
2017-01-24T10:08:40.278Z,523
2017-01-24T10:09:40.452Z,522
2017-01-24T10:10:40.721Z,520
2017-01-24T10:11:40.920Z,515
2017-01-24T10:12:41.128Z,523
2017-01-24T10:13:41.326Z,532
2017-01-24T10:14:41.475Z,532
2017-01-24T10:15:41.594Z,530
2017-01-24T10:16:41.723Z,535
2017-01-24T10:17:41.821Z,547
2017-01-24T10:18:41.919Z,603
2017-01-24T10:19:42.106Z,600
2017-01-24T10:20:42.248Z,600
2017-01-24T10:21:42.315Z,610
2017-01-24T10:22:42.467Z,614
2017-01-24T10:23:42.726Z,619
2017-01-24T10:24:42.966Z,619
2017-01-24T10:25:43.130Z,607
2017-01-24T10:26:43.342Z,599
2017-01-24T10:27:43.496Z,607
2017-01-24T10:28:43.639Z,616
2017-01-24T10:29:43.739Z,611
2017-01-24T10:30:43.961Z,612
2017-01-24T10:31:44.081Z,614
2017-01-24T10:32:44.246Z,612
2017-01-24T10:33:44.390Z,609
2017-01-24T10:34:44.435Z,612
2017-01-24T10:35:44.575Z,605
2017-01-24T10:36:44.807Z,602
2017-01-24T10:37:44.922Z,601
2017-01-24T10:38:45.011Z,602
2017-01-24T10:39:45.088Z,600
2017-01-24T10:40:45.432Z,600
2017-01-24T10:41:45.579Z,603
2017-01-24T10:42:45.795Z,601
2017-01-24T10:43:46.031Z,603
2017-01-24T10:44:46.117Z,612
2017-01-24T10:45:46.403Z,609
2017-01-24T10:46:46.548Z,607
2017-01-24T10:47:46.674Z,603
2017-01-24T10:48:46.819Z,605
2017-01-24T10:49:46.895Z,602
2017-01-24T10:50:47.001Z,591
2017-01-24T10:51:47.216Z,594
2017-01-24T10:52:47.413Z,584
2017-01-24T10:53:47.510Z,532
2017-01-24T10:54:47.619Z,547
2017-01-24T10:55:47.884Z,531
2017-01-24T10:56:47.981Z,528
2017-01-24T10:57:48.200Z,515
2017-01-24T10:58:48.417Z,510
2017-01-24T10:59:48.581Z,507
2017-01-24T11:00:48.737Z,493
2017-01-24T11:01:48.927Z,438
2017-01-24T11:02:49.081Z,445
2017-01-24T11:03:49.336Z,444
2017-01-24T11:04:49.379Z,443
2017-01-24T11:05:49.506Z,445
2017-01-24T11:06:49.699Z,442
2017-01-24T11:07:49.824Z,437
2017-01-24T11:08:49.975Z,437
2017-01-24T11:09:50.128Z,424
2017-01-24T11:10:50.275Z,415
2017-01-24T11:11:50.375Z,409
2017-01-24T11:12:50.603Z,409
2017-01-24T11:13:50.781Z,412
2017-01-24T11:14:50.889Z,416
2017-01-24T11:15:51.003Z,409
2017-01-24T11:16:51.243Z,399
2017-01-24T11:17:51.385Z,393
2017-01-24T11:18:51.546Z,390
2017-01-24T11:19:51.697Z,389
2017-01-24T11:20:51.889Z,389
2017-01-24T11:21:52.072Z,389
2017-01-24T11:22:52.171Z,389
2017-01-24T11:23:52.388Z,395
2017-01-24T11:24:52.495Z,394
2017-01-24T11:25:52.711Z,391
2017-01-24T11:26:52.970Z,393
2017-01-24T11:27:53.185Z,393
2017-01-24T11:28:53.356Z,392
2017-01-24T11:29:53.486Z,389
2017-01-24T11:30:53.589Z,385
2017-01-24T11:31:53.779Z,384
2017-01-24T11:32:53.978Z,373
2017-01-24T11:33:54.192Z,366
2017-01-24T11:34:54.341Z,361
2017-01-24T11:35:54.596Z,356
2017-01-24T11:36:54.772Z,347
2017-01-24T11:37:54.948Z,340
2017-01-24T11:38:55.104Z,329
2017-01-24T11:39:55.261Z,325
2017-01-24T11:40:55.397Z,326
2017-01-24T11:41:55.535Z,325
2017-01-24T11:42:55.771Z,321
2017-01-24T11:43:55.930Z,316
2017-01-24T11:44:56.055Z,312
2017-01-24T11:45:56.256Z,310
2017-01-24T11:46:56.429Z,310
2017-01-24T11:47:56.542Z,309
2017-01-24T11:48:56.674Z,309
2017-01-24T11:49:56.791Z,307
2017-01-24T11:50:56.933Z,307
2017-01-24T11:51:57.086Z,305
2017-01-24T11:52:57.169Z,303
2017-01-24T11:53:57.296Z,303
2017-01-24T11:54:57.427Z,301
2017-01-24T11:55:57.507Z,299
2017-01-24T11:56:57.706Z,299
2017-01-24T11:57:57.838Z,297
2017-01-24T11:58:57.978Z,297
2017-01-24T11:59:58.207Z,297
2017-01-24T12:00:58.362Z,296
2017-01-24T12:01:58.558Z,296
2017-01-24T12:02:58.707Z,296
2017-01-24T12:03:58.872Z,296
2017-01-24T12:04:58.941Z,296
2017-01-24T12:05:59.095Z,296
2017-01-24T12:06:59.218Z,296
2017-01-24T12:07:59.325Z,295
2017-01-24T12:08:59.395Z,295
2017-01-24T12:09:59.554Z,295
2017-01-24T12:10:59.804Z,295
2017-01-24T12:11:59.943Z,294
2017-01-24T12:13:00.121Z,289
2017-01-24T12:14:00.272Z,284
2017-01-24T12:15:00.414Z,284
2017-01-24T12:16:00.587Z,284
2017-01-24T12:17:00.696Z,283
2017-01-24T12:18:00.932Z,284
2017-01-24T12:19:01.071Z,283
2017-01-24T12:20:01.299Z,283
2017-01-24T12:21:01.401Z,283
2017-01-24T12:22:01.595Z,282
2017-01-24T12:23:01.741Z,283
2017-01-24T12:24:01.860Z,284
2017-01-24T12:25:02.051Z,283
2017-01-24T12:26:02.240Z,283
2017-01-24T12:27:02.439Z,284
2017-01-24T12:28:02.686Z,283
2017-01-24T12:29:03.321Z,283
2017-01-24T12:30:03.524Z,283
2017-01-24T12:31:03.579Z,283
2017-01-24T12:32:04.209Z,284
2017-01-24T12:33:03.884Z,284
2017-01-24T12:34:04.052Z,284
2017-01-24T12:35:04.190Z,284
2017-01-24T12:36:04.343Z,284
2017-01-24T12:37:04.503Z,283
2017-01-24T12:38:04.650Z,284
2017-01-24T12:39:04.730Z,283
2017-01-24T12:40:04.899Z,283
2017-01-24T12:41:05.003Z,283
2017-01-24T12:42:05.232Z,284
2017-01-24T12:43:05.340Z,284
2017-01-24T12:44:05.486Z,284
2017-01-24T12:45:05.664Z,284
2017-01-24T12:46:05.875Z,283
2017-01-24T12:47:06.106Z,285
2017-01-24T12:48:06.175Z,283
2017-01-24T12:49:06.294Z,283
2017-01-24T12:50:06.440Z,281
2017-01-24T12:51:06.616Z,283
2017-01-24T12:52:06.701Z,283
2017-01-24T12:53:06.867Z,283
2017-01-24T12:54:07.086Z,283
2017-01-24T12:55:07.258Z,282
2017-01-24T12:56:07.469Z,282
2017-01-24T12:57:07.573Z,283
2017-01-24T12:58:07.814Z,284
2017-01-24T12:59:07.933Z,283
2017-01-24T13:00:08.071Z,284
2017-01-24T13:01:08.285Z,284
2017-01-24T13:02:08.525Z,284
2017-01-24T13:03:08.665Z,283
2017-01-24T13:04:08.752Z,283
2017-01-24T13:05:08.922Z,283
2017-01-24T13:06:09.111Z,284
2017-01-24T13:07:09.268Z,283
2017-01-24T13:08:09.350Z,284
2017-01-24T13:09:09.503Z,283
2017-01-24T13:10:09.716Z,284
2017-01-24T13:11:09.869Z,283
2017-01-24T13:12:10.030Z,283
2017-01-24T13:13:10.178Z,282
2017-01-24T13:14:10.313Z,282
2017-01-24T13:15:10.502Z,282
2017-01-24T13:16:10.685Z,282
2017-01-24T13:17:10.955Z,282
2017-01-24T13:18:11.137Z,282
2017-01-24T13:19:11.329Z,282
2017-01-24T13:20:11.564Z,283
2017-01-24T13:21:11.737Z,282
2017-01-24T13:22:11.946Z,282
2017-01-24T13:23:12.026Z,283
2017-01-24T13:24:12.734Z,283
2017-01-24T13:25:12.409Z,283
2017-01-24T13:26:12.577Z,282
2017-01-24T13:27:12.721Z,282
2017-01-24T13:28:12.929Z,282
2017-01-24T13:29:13.058Z,283
2017-01-24T13:30:13.198Z,282
2017-01-24T13:31:13.383Z,283
2017-01-24T13:32:13.512Z,282
2017-01-24T13:33:13.686Z,282
2017-01-24T13:34:13.875Z,282
2017-01-24T13:35:14.089Z,282
2017-01-24T13:36:14.229Z,281
2017-01-24T13:37:16.231Z,281
2017-01-24T13:38:14.483Z,282
2017-01-24T13:39:14.689Z,282
2017-01-24T13:40:14.845Z,265
2017-01-24T13:41:14.972Z,267
2017-01-24T13:42:15.095Z,268
2017-01-24T13:43:15.251Z,268
2017-01-24T13:44:15.435Z,269
2017-01-24T13:45:15.525Z,250
2017-01-24T13:46:15.710Z,281
2017-01-24T13:47:15.875Z,270
2017-01-24T13:48:16.190Z,280
2017-01-24T13:49:16.542Z,281
2017-01-24T13:50:16.639Z,268